Time;durP1;ratioP1;P1;durP2;ratioP2;P2;SDS_P1;SDS_P2;PMS_P1;PMS_P2;Temp;Humidity;BMP_temperature;BMP_pressure;BME280_temperature;BME280_humidity;BME280_pressure;Samples;Min_cycle;Max_cycle;Signal;HPM_P1;HPM_P2
2023/08/13 00:00:48;;;;;;;7.50;3.83;;;13.90;99.90;;;;;;4997544;28;21007;-83
2023/08/13 00:03:15;;;;;;;12.10;4.87;;;13.80;99.90;;;;;;4998721;28;20237;-83
2023/08/13 00:05:42;;;;;;;8.93;4.30;;;13.90;99.90;;;;;;4999462;28;20220;-83
2023/08/13 00:08:09;;;;;;;10.07;3.60;;;13.80;99.90;;;;;;5005543;28;20243;-83
2023/08/13 00:10:35;;;;;;;9.43;4.57;;;13.90;99.90;;;;;;5022537;28;20235;-84
2023/08/13 00:13:02;;;;;;;10.07;4.27;;;13.80;99.90;;;;;;5007499;28;20234;-84
2023/08/13 00:15:29;;;;;;;10.23;4.60;;;13.80;99.90;;;;;;5007113;28;20226;-83
2023/08/13 00:17:57;;;;;;;6.43;4.93;;;13.80;99.90;;;;;;5005669;28;20240;-83
2023/08/13 00:20:24;;;;;;;11.47;4.60;;;13.70;99.90;;;;;;5007175;28;20299;-83
2023/08/13 00:22:51;;;;;;;8.63;4.83;;;13.70;99.90;;;;;;5006719;28;20281;-83
2023/08/13 00:25:17;;;;;;;10.63;4.63;;;13.60;99.90;;;;;;5007835;28;20226;-83
2023/08/13 00:27:44;;;;;;;7.23;4.37;;;13.70;99.90;;;;;;5008259;28;20683;-82
2023/08/13 00:30:11;;;;;;;9.73;4.37;;;13.60;99.90;;;;;;5006347;28;20231;-82
2023/08/13 00:32:38;;;;;;;10.20;3.90;;;13.60;99.90;;;;;;5007434;28;20318;-83
2023/08/13 00:35:07;;;;;;;9.13;3.53;;;13.60;99.90;;;;;;5008033;28;20252;-81
2023/08/13 00:37:34;;;;;;;9.23;5.07;;;13.60;99.90;;;;;;5006781;28;20221;-82
2023/08/13 00:40:01;;;;;;;6.20;3.83;;;13.60;99.90;;;;;;5006767;28;20226;-82
2023/08/13 00:42:28;;;;;;;9.57;4.03;;;13.60;99.90;;;;;;5006030;28;20843;-83
2023/08/13 00:44:54;;;;;;;6.03;3.70;;;13.50;99.90;;;;;;5008982;28;20258;-81
2023/08/13 00:47:21;;;;;;;6.73;3.50;;;13.50;99.90;;;;;;5008300;28;20336;-82
2023/08/13 00:49:50;;;;;;;7.17;3.63;;;13.50;99.90;;;;;;5008727;28;20238;-82
2023/08/13 00:52:18;;;;;;;6.07;4.17;;;13.50;99.90;;;;;;5007161;28;20233;-82
2023/08/13 00:54:46;;;;;;;6.50;4.03;;;13.50;99.90;;;;;;5007306;28;20228;-81
2023/08/13 00:57:13;;;;;;;5.63;3.40;;;13.50;99.90;;;;;;5006811;28;20256;-82
2023/08/13 00:59:40;;;;;;;6.77;3.73;;;13.50;99.90;;;;;;5006544;28;20223;-82
2023/08/13 01:02:07;;;;;;;7.43;3.80;;;13.40;99.90;;;;;;5007049;28;20905;-83
2023/08/13 01:04:34;;;;;;;9.10;3.90;;;13.40;99.90;;;;;;5009113;28;20251;-83
2023/08/13 01:07:08;;;;;;;6.20;4.00;;;13.40;99.90;;;;;;5008659;28;20225;-83
2023/08/13 01:09:44;;;;;;;10.03;4.27;;;13.30;99.90;;;;;;5021703;28;20329;-82
2023/08/13 01:12:20;;;;;;;8.53;3.37;;;13.30;99.90;;;;;;5033064;28;20230;-82
2023/08/13 01:14:56;;;;;;;6.60;3.23;;;13.30;99.90;;;;;;5007238;28;20305;-83
2023/08/13 01:17:23;;;;;;;8.43;4.20;;;13.30;99.90;;;;;;5008709;28;20229;-82
2023/08/13 01:19:50;;;;;;;7.60;4.23;;;13.30;99.90;;;;;;5014174;28;20700;-83
2023/08/13 01:22:17;;;;;;;7.93;4.20;;;13.30;99.90;;;;;;5007707;28;20231;-82
2023/08/13 01:24:45;;;;;;;9.33;4.23;;;13.20;99.90;;;;;;5009121;28;20314;-83
2023/08/13 01:27:21;;;;;;;7.47;4.03;;;13.30;99.90;;;;;;5007071;28;20250;-83
2023/08/13 01:29:54;;;;;;;5.93;4.03;;;13.20;99.90;;;;;;5008336;28;20240;-83
2023/08/13 01:32:28;;;;;;;8.43;3.87;;;13.20;99.90;;;;;;5006521;28;20230;-82
2023/08/13 01:34:58;;;;;;;6.83;3.77;;;13.20;99.90;;;;;;5006297;28;20233;-82
2023/08/13 01:37:26;;;;;;;7.17;3.90;;;13.20;99.90;;;;;;5007086;28;20660;-83
2023/08/13 01:39:55;;;;;;;9.20;4.10;;;13.20;99.90;;;;;;5007479;28;20312;-83
2023/08/13 01:42:21;;;;;;;6.13;3.33;;;13.20;99.90;;;;;;4988785;28;20236;-83
2023/08/13 01:44:49;;;;;;;8.93;4.17;;;13.20;99.90;;;;;;5014058;28;20231;-82
2023/08/13 01:47:15;;;;;;;9.13;4.30;;;13.20;99.90;;;;;;5007822;28;20238;-82
2023/08/13 01:49:42;;;;;;;7.20;4.27;;;13.20;99.90;;;;;;5002529;28;20262;-80
2023/08/13 01:52:09;;;;;;;6.90;3.70;;;13.20;99.90;;;;;;5005620;28;20230;-82
2023/08/13 01:54:36;;;;;;;8.70;4.33;;;13.20;99.90;;;;;;5010026;28;20244;-81
2023/08/13 01:57:04;;;;;;;8.13;3.77;;;13.20;99.90;;;;;;5011832;28;20278;-81
2023/08/13 01:59:31;;;;;;;11.73;4.73;;;13.20;99.90;;;;;;5008369;28;20236;-81
2023/08/13 02:01:57;;;;;;;9.73;4.27;;;13.20;99.90;;;;;;5009490;28;20291;-80
2023/08/13 02:04:24;;;;;;;9.93;4.60;;;13.10;99.90;;;;;;5002520;28;20259;-81
2023/08/13 02:06:51;;;;;;;7.87;4.17;;;13.10;99.90;;;;;;5003232;28;20223;-81
2023/08/13 02:09:19;;;;;;;11.10;4.27;;;13.10;99.90;;;;;;5006654;28;20249;-82
2023/08/13 02:11:45;;;;;;;8.93;3.87;;;13.10;99.90;;;;;;5007746;28;20254;-82
2023/08/13 02:14:14;;;;;;;7.73;4.47;;;13.10;99.90;;;;;;4995130;28;20263;-81
2023/08/13 02:16:40;;;;;;;8.40;3.53;;;13.10;99.90;;;;;;5001415;28;20293;-82
2023/08/13 02:19:07;;;;;;;7.97;3.90;;;13.10;99.90;;;;;;5003763;28;20307;-81
2023/08/13 02:21:34;;;;;;;7.53;3.90;;;13.10;99.90;;;;;;5005101;28;20305;-82
2023/08/13 02:24:00;;;;;;;7.30;3.83;;;13.10;99.90;;;;;;5008252;28;20232;-83
2023/08/13 02:26:27;;;;;;;7.17;3.47;;;13.10;99.90;;;;;;5007045;28;20237;-83
2023/08/13 02:28:54;;;;;;;5.93;3.67;;;13.10;99.90;;;;;;5003649;28;20229;-83
2023/08/13 02:31:22;;;;;;;8.27;3.73;;;13.10;99.90;;;;;;5014344;28;20311;-83
2023/08/13 02:33:49;;;;;;;8.37;4.03;;;13.10;99.90;;;;;;5006680;28;20284;-83
2023/08/13 02:36:16;;;;;;;7.03;3.83;;;13.20;99.90;;;;;;5006992;28;20233;-84
2023/08/13 02:38:42;;;;;;;9.07;4.07;;;13.20;99.90;;;;;;5021085;28;20276;-83
2023/08/13 02:41:09;;;;;;;6.30;3.70;;;13.20;99.90;;;;;;5004626;28;20322;-84
2023/08/13 02:43:52;;;;;;;8.33;3.67;;;13.30;99.90;;;;;;5006909;28;20718;-83
2023/08/13 02:46:19;;;;;;;8.37;4.10;;;13.30;99.90;;;;;;5006091;28;20898;-83
2023/08/13 02:48:47;;;;;;;8.57;4.00;;;13.40;99.90;;;;;;5007649;28;20319;-83
2023/08/13 02:51:14;;;;;;;9.30;4.77;;;13.40;99.90;;;;;;5006081;28;20240;-83
2023/08/13 02:53:41;;;;;;;9.23;4.10;;;13.40;99.90;;;;;;5008080;28;20872;-83
2023/08/13 02:56:08;;;;;;;8.47;4.17;;;13.50;99.90;;;;;;5005862;28;20229;-84
2023/08/13 02:58:34;;;;;;;8.70;4.17;;;13.50;99.90;;;;;;5006869;28;20223;-82
2023/08/13 03:01:02;;;;;;;10.27;4.10;;;13.50;99.90;;;;;;5006675;28;20309;-84
2023/08/13 03:03:29;;;;;;;6.87;3.70;;;13.60;99.90;;;;;;5005783;28;20284;-84
2023/08/13 03:05:57;;;;;;;8.23;3.70;;;13.60;99.90;;;;;;5007968;28;20236;-83
2023/08/13 03:08:25;;;;;;;6.83;3.43;;;13.60;99.90;;;;;;5007377;28;20367;-83
2023/08/13 03:10:52;;;;;;;7.83;3.53;;;13.60;99.90;;;;;;5008220;28;20261;-83
2023/08/13 03:13:19;;;;;;;8.13;3.70;;;13.60;99.90;;;;;;5007099;28;20304;-83
2023/08/13 03:15:46;;;;;;;10.03;3.60;;;13.60;99.90;;;;;;5006407;28;20313;-83
2023/08/13 03:18:13;;;;;;;9.67;4.33;;;13.70;99.90;;;;;;5006557;28;20262;-83
2023/08/13 03:20:44;;;;;;;5.73;3.20;;;13.70;99.90;;;;;;5006063;28;20313;-82
2023/08/13 03:23:12;;;;;;;6.10;3.23;;;13.60;99.90;;;;;;5006108;28;20246;-82
2023/08/13 03:25:42;;;;;;;9.70;3.73;;;13.70;99.90;;;;;;5006854;28;20243;-83
2023/08/13 03:28:09;;;;;;;8.00;3.80;;;13.70;99.90;;;;;;5006566;28;20751;-82
2023/08/13 03:30:36;;;;;;;7.97;3.93;;;13.60;99.90;;;;;;5006417;28;20222;-83
2023/08/13 03:33:03;;;;;;;11.13;3.70;;;13.60;99.90;;;;;;5005070;28;20231;-82
2023/08/13 03:35:29;;;;;;;7.03;3.73;;;13.50;99.90;;;;;;5005841;28;20787;-83
2023/08/13 03:37:56;;;;;;;7.20;3.73;;;13.50;99.90;;;;;;5002288;28;20229;-82
2023/08/13 03:40:24;;;;;;;5.73;3.70;;;13.50;99.90;;;;;;5004695;28;20621;-83
2023/08/13 03:42:51;;;;;;;8.97;3.50;;;13.50;99.90;;;;;;5007740;28;20599;-83
2023/08/13 03:45:18;;;;;;;7.23;3.40;;;13.50;99.90;;;;;;5006977;28;20294;-83
2023/08/13 03:47:44;;;;;;;6.30;3.57;;;13.50;99.90;;;;;;5006093;28;20269;-83
2023/08/13 03:50:11;;;;;;;8.33;3.80;;;13.50;99.90;;;;;;5005427;28;20225;-82
2023/08/13 03:52:38;;;;;;;9.63;3.20;;;13.50;99.90;;;;;;5017964;28;20961;-82
2023/08/13 03:55:07;;;;;;;8.53;3.87;;;13.50;99.90;;;;;;5005807;28;20232;-83
2023/08/13 03:57:35;;;;;;;5.83;3.20;;;13.50;99.90;;;;;;5005886;28;20346;-81
2023/08/13 04:00:03;;;;;;;12.37;4.13;;;13.60;99.90;;;;;;5007626;28;20293;-82
2023/08/13 04:02:41;;;;;;;8.83;4.07;;;13.60;99.90;;;;;;4991803;28;20238;-83
2023/08/13 04:05:09;;;;;;;8.17;3.20;;;13.60;99.90;;;;;;4988719;28;20297;-83
2023/08/13 04:07:35;;;;;;;11.67;3.90;;;13.70;99.90;;;;;;4993843;28;20236;-82
2023/08/13 04:10:02;;;;;;;6.00;3.30;;;13.70;99.90;;;;;;4994688;28;20660;-83
2023/08/13 04:12:29;;;;;;;6.90;3.73;;;13.70;99.90;;;;;;4994622;28;20223;-82
2023/08/13 04:14:57;;;;;;;7.60;3.33;;;13.70;99.90;;;;;;5009502;28;20257;-83
2023/08/13 04:17:24;;;;;;;8.00;3.10;;;13.70;99.90;;;;;;5008457;28;20230;-83
2023/08/13 04:19:51;;;;;;;4.40;3.10;;;13.70;99.90;;;;;;5008495;28;20309;-81
2023/08/13 04:22:18;;;;;;;5.87;3.47;;;13.70;99.90;;;;;;5009291;28;20238;-80
2023/08/13 04:24:50;;;;;;;7.67;3.17;;;13.80;99.90;;;;;;5008832;28;20230;-82
2023/08/13 04:27:17;;;;;;;7.27;3.73;;;13.70;99.90;;;;;;5010455;28;20281;-82
2023/08/13 04:29:43;;;;;;;6.67;3.23;;;13.80;99.90;;;;;;5008043;28;20256;-82
2023/08/13 04:32:11;;;;;;;7.60;3.70;;;13.80;99.90;;;;;;5007032;28;20247;-80
2023/08/13 04:34:38;;;;;;;6.53;3.40;;;13.80;99.90;;;;;;5008411;28;20322;-79
2023/08/13 04:37:05;;;;;;;7.60;3.40;;;13.80;99.90;;;;;;5007471;28;20973;-82
2023/08/13 04:39:32;;;;;;;8.67;3.57;;;13.80;99.90;;;;;;5001366;28;20925;-83
2023/08/13 04:42:00;;;;;;;6.57;3.20;;;13.80;99.90;;;;;;5003388;28;20223;-83
2023/08/13 04:44:28;;;;;;;7.33;3.17;;;13.80;99.90;;;;;;5002775;28;20222;-83
2023/08/13 04:46:57;;;;;;;10.77;3.40;;;13.90;99.90;;;;;;5003758;28;20306;-82
2023/08/13 04:49:26;;;;;;;5.57;3.40;;;13.90;99.90;;;;;;4995496;28;20235;-82
2023/08/13 04:51:53;;;;;;;6.00;3.03;;;13.90;99.90;;;;;;5006328;28;20224;-82
2023/08/13 04:54:21;;;;;;;10.83;3.40;;;14.00;99.90;;;;;;5005341;28;20762;-82
2023/08/13 04:56:47;;;;;;;8.23;3.60;;;14.00;99.90;;;;;;4995155;28;20221;-82
2023/08/13 04:59:14;;;;;;;6.43;3.20;;;14.00;99.90;;;;;;5002948;28;20231;-82
2023/08/13 05:01:42;;;;;;;7.23;3.30;;;14.10;99.90;;;;;;4998431;28;20231;-82
2023/08/13 05:04:08;;;;;;;5.03;2.97;;;14.20;99.90;;;;;;4999238;28;20236;-81
2023/08/13 05:06:38;;;;;;;6.43;3.67;;;14.20;99.90;;;;;;4990901;28;20230;-80
2023/08/13 05:09:06;;;;;;;8.10;3.40;;;14.20;99.90;;;;;;4988298;28;20253;-81
2023/08/13 05:11:33;;;;;;;8.77;3.50;;;14.20;99.90;;;;;;4989555;28;20221;-81
2023/08/13 05:13:59;;;;;;;8.10;3.47;;;14.30;99.90;;;;;;4989749;28;20319;-80
2023/08/13 05:16:26;;;;;;;8.70;3.03;;;14.30;99.90;;;;;;5022260;28;20240;-80
2023/08/13 05:18:54;;;;;;;9.70;3.50;;;14.40;99.90;;;;;;5022634;28;20333;-81
2023/08/13 05:21:21;;;;;;;6.73;3.17;;;14.40;99.90;;;;;;4993305;28;20904;-78
2023/08/13 05:23:49;;;;;;;6.20;3.10;;;14.50;99.90;;;;;;5007378;28;20232;-83
2023/08/13 05:26:16;;;;;;;6.20;3.30;;;14.60;99.90;;;;;;5001133;28;20258;-80
2023/08/13 05:28:43;;;;;;;6.23;3.27;;;14.60;99.90;;;;;;5006682;28;20237;-79
2023/08/13 05:31:10;;;;;;;4.47;2.80;;;14.70;99.90;;;;;;5007707;28;20320;-80
2023/08/13 05:33:38;;;;;;;9.40;3.70;;;14.70;99.90;;;;;;5006872;28;20780;-80
2023/08/13 05:36:06;;;;;;;6.43;3.03;;;14.80;99.90;;;;;;5006686;28;20316;-80
2023/08/13 05:38:33;;;;;;;7.00;3.47;;;14.90;99.90;;;;;;5008415;28;20248;-79
2023/08/13 05:41:04;;;;;;;9.30;3.43;;;14.90;99.90;;;;;;5007599;28;20215;-80
2023/08/13 05:43:31;;;;;;;6.70;3.20;;;15.00;99.90;;;;;;5008196;28;20290;-80
2023/08/13 05:45:58;;;;;;;5.03;2.80;;;15.00;99.90;;;;;;5007137;28;20288;-80
2023/08/13 05:48:26;;;;;;;8.30;3.50;;;15.00;99.90;;;;;;4993518;28;20710;-79
2023/08/13 05:50:52;;;;;;;7.20;3.60;;;15.10;99.90;;;;;;5006560;28;20300;-79
2023/08/13 05:53:19;;;;;;;5.90;3.03;;;15.20;99.90;;;;;;5006562;28;20230;-80
2023/08/13 05:55:47;;;;;;;6.60;2.87;;;15.20;99.90;;;;;;5008578;28;20230;-80
2023/08/13 05:58:15;;;;;;;6.30;3.03;;;15.20;99.90;;;;;;5007356;28;20292;-80
2023/08/13 06:00:42;;;;;;;5.70;3.30;;;15.30;99.90;;;;;;5015513;28;20226;-79
2023/08/13 06:03:08;;;;;;;4.73;3.00;;;15.30;99.90;;;;;;4992349;28;20242;-79
2023/08/13 06:05:35;;;;;;;8.33;3.43;;;15.40;99.90;;;;;;5010125;28;20234;-80
2023/08/13 06:08:02;;;;;;;5.20;3.03;;;15.40;99.90;;;;;;5012405;28;20229;-80
2023/08/13 06:10:29;;;;;;;7.90;3.10;;;15.40;99.90;;;;;;5006391;28;20232;-80
2023/08/13 06:12:56;;;;;;;7.53;3.17;;;15.50;99.90;;;;;;5006925;28;20306;-80
2023/08/13 06:15:24;;;;;;;5.23;2.83;;;15.50;99.90;;;;;;5010073;28;20228;-80
2023/08/13 06:17:50;;;;;;;8.00;3.00;;;15.60;99.90;;;;;;5015549;28;20218;-80
2023/08/13 06:20:17;;;;;;;6.27;3.03;;;15.60;99.90;;;;;;5028614;28;20229;-80
2023/08/13 06:22:44;;;;;;;6.57;3.97;;;15.70;99.90;;;;;;5030606;28;20314;-78
2023/08/13 06:25:11;;;;;;;6.73;3.50;;;15.70;99.90;;;;;;5028830;28;20229;-80
2023/08/13 06:27:37;;;;;;;6.13;3.20;;;15.80;99.90;;;;;;5029183;28;20227;-80
2023/08/13 06:30:05;;;;;;;6.83;3.27;;;15.90;99.90;;;;;;5029130;28;20239;-80
2023/08/13 06:32:33;;;;;;;6.27;2.60;;;16.00;99.90;;;;;;5045844;28;20258;-79
2023/08/13 06:35:00;;;;;;;6.17;3.20;;;16.00;99.90;;;;;;5029310;28;20239;-79
2023/08/13 06:37:27;;;;;;;7.93;3.20;;;16.10;99.90;;;;;;5031827;28;20225;-79
2023/08/13 06:39:54;;;;;;;6.63;3.30;;;16.20;99.90;;;;;;5030067;28;20257;-79
2023/08/13 06:42:20;;;;;;;4.80;3.20;;;16.30;99.90;;;;;;5030772;28;20263;-79
2023/08/13 06:44:48;;;;;;;5.47;2.80;;;16.40;99.90;;;;;;5028565;28;20234;-78
2023/08/13 06:47:15;;;;;;;6.07;3.30;;;16.50;99.90;;;;;;5027915;28;20266;-79
2023/08/13 06:49:43;;;;;;;7.10;3.17;;;16.60;99.90;;;;;;5030507;28;20233;-80
2023/08/13 06:52:10;;;;;;;5.97;2.93;;;16.70;99.90;;;;;;5028677;28;20230;-80
2023/08/13 06:54:36;;;;;;;8.23;3.20;;;16.80;99.90;;;;;;5031262;28;20781;-80
2023/08/13 06:57:03;;;;;;;7.53;3.10;;;16.90;99.90;;;;;;5029072;28;20230;-79
2023/08/13 06:59:30;;;;;;;6.33;3.13;;;17.00;99.90;;;;;;5029176;28;20234;-79
2023/08/13 07:01:57;;;;;;;7.33;3.13;;;17.00;99.90;;;;;;5028635;28;20232;-78
2023/08/13 07:04:23;;;;;;;7.13;3.63;;;17.00;99.90;;;;;;5029845;28;20243;-80
2023/08/13 07:06:51;;;;;;;5.73;3.20;;;17.00;99.90;;;;;;5029820;28;20331;-84
2023/08/13 07:09:18;;;;;;;6.53;3.43;;;17.10;99.90;;;;;;5027898;28;20266;-82
2023/08/13 07:11:45;;;;;;;5.63;3.20;;;17.00;99.90;;;;;;5027239;28;20747;-80
2023/08/13 07:14:12;;;;;;;7.40;3.20;;;17.00;99.90;;;;;;5014000;28;20224;-84
2023/08/13 07:16:38;;;;;;;7.63;2.93;;;17.00;99.90;;;;;;5008811;28;20321;-80
2023/08/13 07:19:05;;;;;;;6.97;3.17;;;17.00;99.90;;;;;;5008282;28;20250;-81
2023/08/13 07:21:32;;;;;;;5.70;2.90;;;17.00;99.90;;;;;;5008065;28;20312;-80
2023/08/13 07:24:00;;;;;;;5.43;2.70;;;17.10;99.90;;;;;;5008576;28;20225;-81
2023/08/13 07:26:26;;;;;;;6.73;3.63;;;17.20;99.90;;;;;;5009552;28;20221;-80
2023/08/13 07:28:53;;;;;;;7.40;2.90;;;17.50;99.90;;;;;;5010623;28;20236;-80
2023/08/13 07:31:20;;;;;;;4.75;2.70;;;17.80;99.90;;;;;;5003908;28;20233;-82
2023/08/13 07:33:47;;;;;;;8.38;2.78;;;18.30;99.90;;;;;;5012332;28;20299;-81
2023/08/13 07:36:13;;;;;;;4.50;2.42;;;18.90;99.90;;;;;;5001274;28;20234;-79
2023/08/13 07:38:40;;;;;;;5.05;2.88;;;19.40;99.90;;;;;;5026304;28;20224;-80
2023/08/13 07:41:08;;;;;;;7.03;2.53;;;20.00;99.90;;;;;;5032765;28;20220;-79
2023/08/13 07:43:35;;;;;;;9.25;2.80;;;20.70;99.90;;;;;;5032298;28;20820;-79
2023/08/13 07:46:01;;;;;;;5.53;2.22;;;21.20;99.90;;;;;;5047851;28;20228;-79
2023/08/13 07:48:28;;;;;;;4.75;2.30;;;21.70;99.90;;;;;;5030759;28;20706;-79
2023/08/13 07:50:55;;;;;;;5.57;2.42;;;22.20;99.90;;;;;;5032750;28;20227;-79
2023/08/13 07:53:22;;;;;;;3.60;2.15;;;22.50;99.90;;;;;;5030928;28;20695;-79
2023/08/13 07:55:49;;;;;;;4.97;2.35;;;22.80;99.90;;;;;;5032552;28;20265;-79
2023/08/13 07:58:18;;;;;;;4.80;2.50;;;23.10;99.90;;;;;;5030580;28;20279;-79
2023/08/13 08:00:45;;;;;;;5.00;2.42;;;23.30;99.90;;;;;;5032075;28;20743;-80
2023/08/13 08:03:13;;;;;;;7.35;2.65;;;23.50;99.90;;;;;;5032560;28;20275;-80
2023/08/13 08:05:40;;;;;;;6.03;2.72;;;23.70;99.90;;;;;;5031004;28;20231;-80
2023/08/13 08:08:07;;;;;;;3.17;1.95;;;23.80;99.90;;;;;;5030294;28;20245;-79
2023/08/13 08:10:34;;;;;;;5.72;2.33;;;24.00;99.90;;;;;;5031307;28;20299;-80
2023/08/13 08:13:01;;;;;;;6.30;2.20;;;24.10;99.90;;;;;;5029605;28;20221;-80
2023/08/13 08:15:29;;;;;;;3.80;1.70;;;24.30;99.90;;;;;;5029479;28;20801;-82
2023/08/13 08:17:56;;;;;;;6.07;2.15;;;24.50;99.90;;;;;;5012317;28;20221;-84
2023/08/13 08:20:23;;;;;;;7.82;2.55;;;24.70;99.90;;;;;;5003750;28;20224;-81
2023/08/13 08:22:49;;;;;;;4.93;2.00;;;24.80;99.90;;;;;;5007983;28;20221;-83
2023/08/13 08:25:16;;;;;;;5.05;2.10;;;25.00;99.90;;;;;;5020049;28;20217;-83
2023/08/13 08:27:43;;;;;;;4.80;2.03;;;25.10;99.90;;;;;;5011403;28;20229;-83
2023/08/13 08:30:10;;;;;;;4.93;2.47;;;25.20;99.90;;;;;;5021933;28;20232;-83
2023/08/13 08:32:38;;;;;;;3.20;1.80;;;25.20;99.90;;;;;;5002513;28;20308;-82
2023/08/13 08:35:06;;;;;;;5.20;2.03;;;25.20;99.90;;;;;;5010846;28;20923;-83
2023/08/13 08:37:33;;;;;;;4.97;2.10;;;25.30;99.90;;;;;;5002639;28;21035;-83
2023/08/13 08:40:00;;;;;;;3.28;2.03;;;25.40;99.90;;;;;;5004604;28;20239;-82
2023/08/13 08:42:27;;;;;;;4.25;2.22;;;25.60;99.90;;;;;;5006762;28;20223;-83
2023/08/13 08:44:53;;;;;;;4.70;1.98;;;25.60;99.60;;;;;;5007029;28;20225;-83
2023/08/13 08:47:22;;;;;;;4.90;1.83;;;25.60;97.80;;;;;;5008212;28;20225;-83
2023/08/13 08:49:51;;;;;;;4.32;1.70;;;25.60;98.60;;;;;;5001030;28;20232;-82
2023/08/13 08:52:18;;;;;;;5.80;1.95;;;25.50;98.40;;;;;;5008123;28;20229;-83
2023/08/13 08:54:48;;;;;;;5.78;1.73;;;25.40;98.60;;;;;;5005908;28;20221;-82
2023/08/13 08:57:14;;;;;;;3.13;1.50;;;25.30;99.20;;;;;;4999861;28;20737;-83
2023/08/13 08:59:41;;;;;;;5.85;1.30;;;25.30;99.00;;;;;;5007935;28;20255;-83
2023/08/13 09:02:09;;;;;;;3.75;1.20;;;25.30;99.50;;;;;;5004796;28;20227;-83
2023/08/13 09:04:36;;;;;;;2.42;1.30;;;25.40;99.70;;;;;;5004086;28;20253;-83
2023/08/13 09:07:04;;;;;;;3.92;1.70;;;25.50;99.90;;;;;;5000064;28;20217;-83
2023/08/13 09:09:32;;;;;;;4.00;1.58;;;25.80;98.70;;;;;;4993924;28;20240;-83
2023/08/13 09:11:59;;;;;;;2.92;1.30;;;26.00;98.20;;;;;;4995444;28;20222;-83
2023/08/13 09:14:26;;;;;;;3.47;1.70;;;26.40;99.10;;;;;;5005982;28;20235;-83
2023/08/13 09:16:54;;;;;;;4.88;1.63;;;26.70;98.50;;;;;;5003323;28;20224;-83
2023/08/13 09:19:24;;;;;;;3.22;1.45;;;26.90;95.50;;;;;;5005722;28;20244;-83
2023/08/13 09:21:52;;;;;;;3.28;1.30;;;27.10;96.70;;;;;;4999961;28;20285;-83
2023/08/13 09:24:28;;;;;;;2.78;1.20;;;27.20;96.50;;;;;;4997412;28;20226;-82
2023/08/13 09:26:55;;;;;;;3.47;1.27;;;27.40;95.80;;;;;;5002365;28;20704;-83
2023/08/13 09:29:22;;;;;;;4.35;1.23;;;27.70;96.40;;;;;;4994972;28;20229;-83
2023/08/13 09:31:48;;;;;;;5.45;1.40;;;27.90;96.20;;;;;;5004589;28;20224;-83
2023/08/13 09:34:18;;;;;;;2.63;1.33;;;28.30;96.20;;;;;;5000705;28;20230;-83
2023/08/13 09:36:44;;;;;;;3.03;1.48;;;28.50;92.10;;;;;;4995629;28;20230;-83
2023/08/13 09:39:12;;;;;;;2.95;1.30;;;28.50;92.80;;;;;;5003174;28;20218;-83
2023/08/13 09:41:41;;;;;;;2.00;1.13;;;28.70;92.40;;;;;;5003129;28;20235;-83
2023/08/13 09:44:10;;;;;;;2.78;1.10;;;28.90;92.90;;;;;;4995814;28;20228;-83
2023/08/13 09:46:41;;;;;;;4.20;1.25;;;29.00;90.90;;;;;;5001366;28;20217;-83
2023/08/13 09:49:11;;;;;;;3.30;1.70;;;29.10;91.70;;;;;;4993458;28;20227;-83
2023/08/13 09:51:39;;;;;;;4.22;1.20;;;29.40;91.80;;;;;;4997667;28;20312;-83
2023/08/13 09:54:13;;;;;;;2.50;1.17;;;29.40;90.70;;;;;;4998339;28;20722;-83
2023/08/13 09:56:45;;;;;;;2.65;1.45;;;29.50;90.50;;;;;;5003573;28;20225;-83
2023/08/13 09:59:12;;;;;;;2.83;1.08;;;29.60;90.50;;;;;;5000116;28;20225;-83
2023/08/13 10:01:39;;;;;;;3.92;1.10;;;29.70;91.10;;;;;;4999200;28;21159;-83
2023/08/13 10:04:08;;;;;;;2.33;1.13;;;29.80;91.20;;;;;;4999998;28;20217;-84
2023/08/13 10:06:35;;;;;;;3.13;1.20;;;29.90;91.30;;;;;;5001835;28;20238;-83
2023/08/13 10:09:02;;;;;;;2.33;1.00;;;30.10;90.80;;;;;;4991939;28;20223;-84
2023/08/13 10:11:29;;;;;;;2.40;1.00;;;30.30;90.50;;;;;;4995057;28;20651;-83
2023/08/13 10:13:57;;;;;;;2.47;0.90;;;30.60;89.10;;;;;;5000887;28;20913;-84
2023/08/13 10:16:25;;;;;;;2.10;1.10;;;30.60;84.20;;;;;;5002613;28;20240;-83
2023/08/13 10:18:51;;;;;;;1.40;1.00;;;30.60;86.40;;;;;;4999214;28;20228;-84
2023/08/13 10:21:32;;;;;;;2.83;1.20;;;30.50;87.00;;;;;;4999204;28;20693;-83
2023/08/13 10:24:00;;;;;;;3.67;1.33;;;30.40;83.50;;;;;;4984680;28;20891;-83
2023/08/13 10:26:28;;;;;;;2.63;1.30;;;30.20;82.40;;;;;;4999934;28;20229;-84
2023/08/13 10:28:56;;;;;;;3.92;1.30;;;30.00;83.70;;;;;;5003781;28;20238;-83
2023/08/13 10:31:30;;;;;;;2.00;1.02;;;29.90;86.30;;;;;;5006138;28;20226;-83
2023/08/13 10:34:10;;;;;;;2.58;1.10;;;29.80;84.50;;;;;;4999317;28;20226;-83
2023/08/13 10:36:44;;;;;;;2.70;1.10;;;29.70;84.60;;;;;;5000666;28;20767;-83
2023/08/13 10:39:34;;;;;;;3.17;2.20;;;29.60;85.60;;;;;;4993873;28;20232;-83
2023/08/13 10:42:01;;;;;;;5.63;2.22;;;29.40;86.60;;;;;;4994216;28;20233;-84
2023/08/13 10:44:30;;;;;;;3.83;1.83;;;29.30;86.70;;;;;;5002108;28;20227;-83
2023/08/13 10:46:59;;;;;;;3.58;1.80;;;29.00;86.60;;;;;;5004215;28;20225;-84
2023/08/13 10:49:27;;;;;;;2.53;1.35;;;28.90;87.60;;;;;;5002176;28;20226;-84
2023/08/13 10:51:54;;;;;;;2.45;1.05;;;28.80;87.80;;;;;;5004322;28;20220;-83
2023/08/13 10:54:24;;;;;;;2.92;1.02;;;28.80;88.00;;;;;;5003088;28;20233;-83
2023/08/13 10:56:56;;;;;;;1.80;1.02;;;28.70;88.30;;;;;;5001908;28;20225;-84
2023/08/13 10:59:30;;;;;;;3.55;1.30;;;28.70;87.70;;;;;;5000892;28;21698;-83
2023/08/13 11:02:11;;;;;;;2.75;1.27;;;28.60;89.20;;;;;;5004113;28;20245;-84
2023/08/13 11:04:40;;;;;;;2.85;1.20;;;28.60;89.10;;;;;;4988613;28;20761;-81
2023/08/13 11:07:07;;;;;;;3.08;1.15;;;28.80;89.90;;;;;;5001775;28;20225;-81
2023/08/13 11:09:34;;;;;;;2.67;1.00;;;29.00;88.20;;;;;;4997610;28;20257;-81
2023/08/13 11:12:01;;;;;;;2.53;0.90;;;29.20;85.60;;;;;;5004407;28;20838;-81
2023/08/13 11:14:31;;;;;;;2.33;1.20;;;29.40;86.10;;;;;;4996596;28;20230;-81
2023/08/13 11:16:57;;;;;;;3.20;0.90;;;29.60;85.30;;;;;;5001079;28;20229;-81
2023/08/13 11:19:24;;;;;;;4.13;1.00;;;29.60;84.40;;;;;;4998540;28;20241;-81
2023/08/13 11:21:51;;;;;;;2.10;1.00;;;29.80;85.00;;;;;;4995431;28;20230;-81
2023/08/13 11:24:18;;;;;;;2.78;1.15;;;29.90;82.30;;;;;;4995795;28;20236;-81
2023/08/13 11:26:47;;;;;;;5.63;1.17;;;29.70;82.20;;;;;;4995155;28;20861;-81
2023/08/13 11:29:13;;;;;;;3.70;0.85;;;29.70;83.30;;;;;;4997804;28;20824;-81
2023/08/13 11:31:46;;;;;;;2.22;1.23;;;29.70;83.90;;;;;;5002983;28;20742;-81
2023/08/13 11:34:12;;;;;;;2.08;1.02;;;29.70;83.00;;;;;;5001520;28;20225;-81
2023/08/13 11:36:39;;;;;;;1.90;1.02;;;29.70;84.00;;;;;;4997813;28;20240;-81
2023/08/13 11:39:06;;;;;;;2.53;1.33;;;29.80;84.00;;;;;;4996940;28;20710;-81
2023/08/13 11:41:32;;;;;;;2.78;1.08;;;29.80;83.00;;;;;;4997881;28;20232;-82
2023/08/13 11:44:01;;;;;;;3.72;1.40;;;29.90;83.90;;;;;;4998737;28;20226;-81
2023/08/13 11:46:28;;;;;;;2.60;0.95;;;30.00;83.30;;;;;;4998628;28;20927;-81
2023/08/13 11:49:00;;;;;;;3.03;1.05;;;29.90;80.10;;;;;;5004803;28;20255;-81
2023/08/13 11:51:27;;;;;;;1.83;1.05;;;30.00;82.10;;;;;;4997564;28;20237;-81
2023/08/13 11:53:53;;;;;;;2.85;1.20;;;30.00;81.80;;;;;;4996905;28;20257;-81
2023/08/13 11:56:20;;;;;;;3.28;1.38;;;29.90;81.50;;;;;;4997783;28;20221;-81
2023/08/13 11:58:49;;;;;;;3.20;1.00;;;29.80;81.30;;;;;;5002744;28;20247;-81
2023/08/13 12:01:15;;;;;;;3.58;1.17;;;29.70;81.10;;;;;;5000783;28;21188;-81
2023/08/13 12:03:45;;;;;;;2.75;1.00;;;29.50;81.50;;;;;;5001883;28;20225;-81
2023/08/13 12:06:13;;;;;;;2.55;1.10;;;29.20;80.90;;;;;;4996654;28;20214;-81
2023/08/13 12:08:44;;;;;;;3.65;1.17;;;28.80;81.20;;;;;;4995659;28;20222;-80
2023/08/13 12:11:11;;;;;;;2.47;1.25;;;28.60;83.20;;;;;;4997939;28;20230;-81
2023/08/13 12:13:41;;;;;;;3.35;1.05;;;28.40;84.00;;;;;;4996618;28;20316;-81
2023/08/13 12:16:08;;;;;;;2.47;1.30;;;28.20;82.80;;;;;;4995568;28;20236;-81
2023/08/13 12:18:34;;;;;;;1.83;1.10;;;28.00;84.30;;;;;;4998777;28;20229;-81
2023/08/13 12:21:01;;;;;;;4.60;0.95;;;27.70;83.80;;;;;;5002555;28;20225;-81
2023/08/13 12:23:30;;;;;;;2.15;0.80;;;27.50;84.40;;;;;;4999458;28;20230;-81
2023/08/13 12:25:56;;;;;;;2.35;0.88;;;27.30;84.70;;;;;;5003503;28;20980;-81
2023/08/13 12:28:23;;;;;;;1.60;0.93;;;27.20;86.10;;;;;;4998636;28;20258;-81
2023/08/13 12:30:50;;;;;;;1.38;0.80;;;27.00;84.70;;;;;;5001874;28;20226;-81
2023/08/13 12:33:16;;;;;;;1.95;0.90;;;27.00;86.30;;;;;;4999898;28;20250;-80
2023/08/13 12:35:43;;;;;;;2.17;0.88;;;26.90;86.80;;;;;;5003718;28;20226;-81
2023/08/13 12:38:09;;;;;;;3.33;0.90;;;26.90;86.90;;;;;;4994631;28;20653;-81
2023/08/13 12:40:37;;;;;;;1.55;0.98;;;27.00;87.80;;;;;;5004499;28;20240;-81
2023/08/13 12:43:04;;;;;;;2.75;0.90;;;27.10;88.20;;;;;;5004614;28;20228;-81
2023/08/13 12:45:31;;;;;;;2.20;0.85;;;27.10;87.00;;;;;;4995350;28;20232;-81
2023/08/13 12:47:58;;;;;;;2.20;1.00;;;27.20;86.80;;;;;;4999784;28;20226;-81